Terminal Aerodrome Forecast
Issued by NWS Buffalo, NY

Home | Current Version | Previous Version | Text Only | Print | Product List | Glossary On
Versions: 1 2 3 4 5 6 7 8 9 10 11 12 13 14 15 16 17 18 19 20 21 22 23 24 25 26 27 28 29
000
FTUS41 KBUF 011446 AAB
TAFART
TAF AMD
KART 011446Z 0115/0212 VRB03KT 5SM BR BKN015
     FM011530 19004KT P6SM FEW015
     FM011700 23008KT P6SM SKC
     FM020000 19004KT P6SM SKC
     FM020900 18005KT 2SM BR BKN007=

USA.gov is the U.S. government's official web portal to all federal, state and local government web resources and services.